»·PEaware :: N1511H KPDX-KBOI

N1511H :: KPDX-KBOI

FLIGHT INFORMATION

Flight Status: Arrived
Operator: Privately registered:
United States
More flights under this callsign
Pilot: Phillip S. (23877)
Aircraft: EMBRAER PHENOM 300
(E55P)
More flights by this aircraft type
Origin: KPDX Portland Intl
United States
Destination: KBOI Boise Air Terminal/Gowen
United States
More flights between these airports :: More routes between these airports
Route: PTLD1 IMB DEVLE KYAAN3
File this flight plan on PilotEdge
Remarks:
Altitude:
(Current/Filed)
27,000ft
Speed:
(Current/Filed)
450kts
Departed: 14-Jul-20 02:11 PM
Arrived: 14-Jul-20 03:09 PM
Distance/Time
Traveled:
298nm/0:57
Distance/Time
To Go:
Arrived

Flight Plot

Page will automatically refresh every two minutes.


Map Options




Map Legend


Flown Route
Filed Route
Departure Airport
Arrival Airport
Navaid (VOR, NDB)
Fix

Horizontal Profiles

Position Reports

Time Latitude Longitude Heading Altitude Ground
Speed
14-Jul-20 13:46 45.586292 -122.582349 209 33ft 0kts
14-Jul-20 13:47 45.586292 -122.582349 209 33ft 0kts
14-Jul-20 13:48 45.586292 -122.582349 209 33ft 0kts
14-Jul-20 13:49 45.586292 -122.582349 209 33ft 0kts
14-Jul-20 13:50 45.586292 -122.582349 209 33ft 0kts
14-Jul-20 13:51 45.586292 -122.582349 209 33ft 0kts
14-Jul-20 13:52 45.586292 -122.582349 209 33ft 0kts
14-Jul-20 13:53 45.586292 -122.582349 209 33ft 0kts
14-Jul-20 13:54 45.586292 -122.582349 209 33ft 0kts
14-Jul-20 13:55 45.586292 -122.582349 209 33ft 0kts
14-Jul-20 13:56 45.586292 -122.582349 209 33ft 0kts
14-Jul-20 13:57 45.586292 -122.582349 209 33ft 0kts
14-Jul-20 13:58 45.586292 -122.582349 209 33ft 0kts
14-Jul-20 13:59 45.586292 -122.582349 209 33ft 0kts
14-Jul-20 14:00 45.586310 -122.582336 209 33ft 1kts
14-Jul-20 14:01 45.586379 -122.582281 209 33ft 0kts
14-Jul-20 14:02 45.586379 -122.582281 209 33ft 0kts
14-Jul-20 14:03 45.586379 -122.582281 209 33ft 0kts
14-Jul-20 14:04 45.586454 -122.582221 209 33ft 2kts
14-Jul-20 14:05 45.587041 -122.581756 209 33ft 0kts
14-Jul-20 14:06 45.586934 -122.578095 113 33ft 18kts
14-Jul-20 14:07 45.583690 -122.570128 117 33ft 14kts
14-Jul-20 14:08 45.583715 -122.569037 28 33ft 0kts
14-Jul-20 14:09 45.584382 -122.568946 314 33ft 12kts
14-Jul-20 14:10 45.591612 -122.587446 297 606ft 150kts
14-Jul-20 14:11 45.616329 -122.657473 296 3706ft 246kts
14-Jul-20 14:12 45.647580 -122.748361 296 5778ft 243kts
14-Jul-20 14:13 45.634270 -122.820730 175 7023ft 243kts
14-Jul-20 14:14 45.642753 -122.755084 47 9947ft 256kts
14-Jul-20 14:15 45.625436 -122.647205 123 12823ft 338kts
14-Jul-20 14:16 45.578254 -122.519853 110 14879ft 400kts
14-Jul-20 14:18 45.532865 -122.371080 111 17691ft 415kts
14-Jul-20 14:19 45.485122 -122.219906 111 20492ft 419kts
14-Jul-20 14:20 45.436808 -122.068234 110 22806ft 431kts
14-Jul-20 14:21 45.384475 -121.904929 111 23167ft 477kts
14-Jul-20 14:22 45.330647 -121.738307 111 26005ft 451kts
14-Jul-20 14:23 45.277445 -121.574347 111 27040ft 471kts
14-Jul-20 14:24 45.221764 -121.404026 111 27142ft 484kts
14-Jul-20 14:25 45.164069 -121.228715 111 27146ft 493kts
14-Jul-20 14:26 45.105291 -121.051309 112 27136ft 499kts
14-Jul-20 14:27 45.045943 -120.873385 112 27141ft 502kts
14-Jul-20 14:28 44.985928 -120.694684 112 27161ft 501kts
14-Jul-20 14:29 44.925812 -120.516863 113 27156ft 502kts
14-Jul-20 14:30 44.865479 -120.339587 113 27153ft 503kts
14-Jul-20 14:31 44.804860 -120.162659 113 27172ft 502kts
14-Jul-20 14:32 44.743805 -119.985631 113 27201ft 502kts
14-Jul-20 14:33 44.682482 -119.808998 113 27220ft 501kts
14-Jul-20 14:34 44.634169 -119.626079 100 27207ft 498kts
14-Jul-20 14:35 44.602795 -119.437426 100 27208ft 497kts
14-Jul-20 14:36 44.570909 -119.248284 100 27217ft 497kts
14-Jul-20 14:36 44.544074 -119.090762 101 27248ft 498kts
14-Jul-20 14:38 44.506218 -118.870954 101 27227ft 499kts
14-Jul-20 14:39 44.473268 -118.681830 101 27205ft 499kts
14-Jul-20 14:39 44.445678 -118.525019 102 27221ft 499kts
14-Jul-20 14:41 44.406516 -118.304746 102 27184ft 500kts
14-Jul-20 14:41 44.378346 -118.147936 102 27161ft 499kts
14-Jul-20 14:42 44.344170 -117.959506 102 27205ft 500kts
14-Jul-20 14:43 44.309677 -117.771240 102 27215ft 491kts
14-Jul-20 14:44 44.277390 -117.596894 102 25812ft 446kts
14-Jul-20 14:45 44.246978 -117.433961 103 24006ft 423kts
14-Jul-20 14:46 44.216551 -117.280750 112 22665ft 404kts
14-Jul-20 14:47 44.145299 -117.161389 138 20776ft 398kts
14-Jul-20 14:48 44.066451 -117.058256 138 18897ft 384kts
14-Jul-20 14:49 43.989387 -116.957740 136 16996ft 376kts
14-Jul-20 14:50 43.928683 -116.848196 124 15077ft 337kts
14-Jul-20 14:51 43.878392 -116.744605 124 13198ft 316kts
14-Jul-20 14:52 43.830152 -116.645641 123 11280ft 302kts
14-Jul-20 14:53 43.783874 -116.552260 124 9384ft 274kts
14-Jul-20 14:54 43.742739 -116.469551 124 8131ft 253kts
14-Jul-20 14:55 43.703862 -116.391581 124 8005ft 245kts
14-Jul-20 14:56 43.669297 -116.311862 115 8009ft 242kts
14-Jul-20 14:57 43.640778 -116.229506 115 8001ft 237kts
14-Jul-20 14:58 43.611648 -116.146127 115 8005ft 247kts
14-Jul-20 14:59 43.582250 -116.060758 115 8000ft 239kts
14-Jul-20 15:00 43.553762 -115.977880 115 8018ft 241kts
14-Jul-20 15:01 43.523967 -115.894442 130 7998ft 241kts
14-Jul-20 15:02 43.473063 -115.916902 253 7762ft 240kts
14-Jul-20 15:03 43.475136 -115.999024 302 7031ft 188kts
14-Jul-20 15:04 43.504675 -116.053602 300 6174ft 173kts
14-Jul-20 15:05 43.526382 -116.110794 296 5097ft 151kts
14-Jul-20 15:06 43.543381 -116.161179 296 3501ft 134kts
14-Jul-20 15:07 43.557803 -116.201078 294 2950ft 104kts
14-Jul-20 15:08 43.565506 -116.221305 341 2874ft 0kts

Navigation Log

Ident Type
Flight plan parsing failed, navigation log unavailable